sensor_id;sensor_type;location;lat;lon;timestamp;pressure;altitude;pressure_sealevel;temperature;humidity
13690;BME280;6917;52.194;9.894;2023-04-28T00:00:24;100502.19;;;6.50;69.48
13690;BME280;6917;52.194;9.894;2023-04-28T00:02:49;100498.97;;;6.48;69.16
13690;BME280;6917;52.194;9.894;2023-04-28T00:05:14;100492.50;;;6.44;68.70
13690;BME280;6917;52.194;9.894;2023-04-28T00:07:40;100486.00;;;6.40;68.62
13690;BME280;6917;52.194;9.894;2023-04-28T00:10:06;100484.41;;;6.39;68.70
13690;BME280;6917;52.194;9.894;2023-04-28T00:12:31;100483.59;;;6.39;68.86
13690;BME280;6917;52.194;9.894;2023-04-28T00:14:56;100483.59;;;6.39;68.66
13690;BME280;6917;52.194;9.894;2023-04-28T00:17:22;100482.84;;;6.28;68.82
13690;BME280;6917;52.194;9.894;2023-04-28T00:19:47;100485.22;;;6.35;69.23
13690;BME280;6917;52.194;9.894;2023-04-28T00:22:13;100483.66;;;6.29;69.80
13690;BME280;6917;52.194;9.894;2023-04-28T00:24:39;100479.25;;;6.38;69.94
13690;BME280;6917;52.194;9.894;2023-04-28T00:27:06;100467.59;;;6.37;69.77
13690;BME280;6917;52.194;9.894;2023-04-28T00:29:31;100469.16;;;6.43;69.64
13690;BME280;6917;52.194;9.894;2023-04-28T00:31:56;100469.41;;;6.47;69.95
13690;BME280;6917;52.194;9.894;2023-04-28T00:34:22;100467.75;;;6.51;69.67
13690;BME280;6917;52.194;9.894;2023-04-28T00:36:47;100460.16;;;6.48;70.24
13690;BME280;6917;52.194;9.894;2023-04-28T00:39:12;100461.59;;;6.35;70.78
13690;BME280;6917;52.194;9.894;2023-04-28T00:41:38;100461.09;;;6.33;71.31
13690;BME280;6917;52.194;9.894;2023-04-28T00:44:04;100473.22;;;6.46;71.39
13690;BME280;6917;52.194;9.894;2023-04-28T00:46:30;100476.13;;;6.54;71.41
13690;BME280;6917;52.194;9.894;2023-04-28T00:48:56;100470.94;;;6.58;71.97
13690;BME280;6917;52.194;9.894;2023-04-28T00:51:22;100471.81;;;6.53;71.64
13690;BME280;6917;52.194;9.894;2023-04-28T00:53:47;100473.94;;;6.56;72.13
13690;BME280;6917;52.194;9.894;2023-04-28T00:56:13;100464.94;;;6.61;72.14
13690;BME280;6917;52.194;9.894;2023-04-28T00:58:39;100464.09;;;6.66;72.72
13690;BME280;6917;52.194;9.894;2023-04-28T01:01:06;100461.91;;;6.68;73.52
13690;BME280;6917;52.194;9.894;2023-04-28T01:03:37;100464.63;;;6.68;73.72
13690;BME280;6917;52.194;9.894;2023-04-28T01:06:04;100459.75;;;6.65;73.50
13690;BME280;6917;52.194;9.894;2023-04-28T01:08:30;100444.94;;;6.52;72.96
13690;BME280;6917;52.194;9.894;2023-04-28T01:10:56;100451.59;;;6.65;73.02
13690;BME280;6917;52.194;9.894;2023-04-28T01:13:21;100452.41;;;6.65;73.13
13690;BME280;6917;52.194;9.894;2023-04-28T01:15:47;100449.31;;;6.77;73.46
13690;BME280;6917;52.194;9.894;2023-04-28T01:18:13;100430.84;;;6.79;72.96
13690;BME280;6917;52.194;9.894;2023-04-28T01:20:40;100430.81;;;6.84;72.97
13690;BME280;6917;52.194;9.894;2023-04-28T01:23:13;100430.50;;;6.85;73.02
13690;BME280;6917;52.194;9.894;2023-04-28T01:25:39;100430.59;;;6.75;72.78
13690;BME280;6917;52.194;9.894;2023-04-28T01:28:05;100434.63;;;6.83;72.61
13690;BME280;6917;52.194;9.894;2023-04-28T01:30:31;100441.09;;;6.87;72.81
13690;BME280;6917;52.194;9.894;2023-04-28T01:32:56;100433.47;;;6.89;73.16
13690;BME280;6917;52.194;9.894;2023-04-28T01:35:22;100429.41;;;6.86;73.21
13690;BME280;6917;52.194;9.894;2023-04-28T01:37:48;100428.13;;;6.79;74.09
13690;BME280;6917;52.194;9.894;2023-04-28T01:40:13;100437.03;;;6.84;74.49
13690;BME280;6917;52.194;9.894;2023-04-28T01:42:38;100426.47;;;6.83;74.50
13690;BME280;6917;52.194;9.894;2023-04-28T01:45:04;100419.50;;;6.72;74.87
13690;BME280;6917;52.194;9.894;2023-04-28T01:47:30;100419.94;;;6.55;75.21
13690;BME280;6917;52.194;9.894;2023-04-28T01:49:55;100424.84;;;6.53;75.72
13690;BME280;6917;52.194;9.894;2023-04-28T01:52:21;100418.63;;;6.52;76.48
13690;BME280;6917;52.194;9.894;2023-04-28T01:54:48;100420.53;;;6.52;76.51
13690;BME280;6917;52.194;9.894;2023-04-28T01:57:14;100409.50;;;6.38;77.07
13690;BME280;6917;52.194;9.894;2023-04-28T01:59:39;100408.72;;;6.33;77.65
13690;BME280;6917;52.194;9.894;2023-04-28T02:02:04;100402.56;;;6.22;78.09
13690;BME280;6917;52.194;9.894;2023-04-28T02:04:30;100398.91;;;6.03;78.47
13690;BME280;6917;52.194;9.894;2023-04-28T02:06:55;100383.81;;;5.91;77.97
13690;BME280;6917;52.194;9.894;2023-04-28T02:09:20;100385.97;;;5.94;78.01
13690;BME280;6917;52.194;9.894;2023-04-28T02:11:46;100385.97;;;5.94;78.69
13690;BME280;6917;52.194;9.894;2023-04-28T02:14:11;100383.53;;;5.93;78.61
13690;BME280;6917;52.194;9.894;2023-04-28T02:16:36;100385.97;;;5.94;79.10
13690;BME280;6917;52.194;9.894;2023-04-28T02:19:02;100377.66;;;5.76;78.87
13690;BME280;6917;52.194;9.894;2023-04-28T02:21:27;100389.81;;;5.78;79.21
13690;BME280;6917;52.194;9.894;2023-04-28T02:23:52;100397.63;;;5.95;79.64
13690;BME280;6917;52.194;9.894;2023-04-28T02:26:18;100388.13;;;5.97;79.53
13690;BME280;6917;52.194;9.894;2023-04-28T02:28:43;100383.78;;;5.96;79.84
13690;BME280;6917;52.194;9.894;2023-04-28T02:31:10;100374.13;;;5.80;80.17
13690;BME280;6917;52.194;9.894;2023-04-28T02:33:36;100366.03;;;5.70;80.55
13690;BME280;6917;52.194;9.894;2023-04-28T02:36:03;100367.41;;;5.67;80.29
13690;BME280;6917;52.194;9.894;2023-04-28T02:38:29;100356.56;;;5.67;80.78
13690;BME280;6917;52.194;9.894;2023-04-28T02:41:05;100351.91;;;5.73;81.02
13690;BME280;6917;52.194;9.894;2023-04-28T02:43:33;100345.41;;;5.74;81.32
13690;BME280;6917;52.194;9.894;2023-04-28T02:45:59;100334.38;;;5.60;80.98
13690;BME280;6917;52.194;9.894;2023-04-28T02:48:25;100336.81;;;5.62;80.87
13690;BME280;6917;52.194;9.894;2023-04-28T02:50:50;100332.53;;;5.56;80.70
13690;BME280;6917;52.194;9.894;2023-04-28T02:53:17;100336.38;;;5.50;80.33
13690;BME280;6917;52.194;9.894;2023-04-28T02:55:43;100340.41;;;5.52;80.50
13690;BME280;6917;52.194;9.894;2023-04-28T02:58:08;100337.41;;;5.54;80.98
13690;BME280;6917;52.194;9.894;2023-04-28T03:00:33;100336.56;;;5.58;81.68
13690;BME280;6917;52.194;9.894;2023-04-28T03:02:59;100333.56;;;5.60;81.30
13690;BME280;6917;52.194;9.894;2023-04-28T03:05:24;100326.06;;;5.52;81.57
13690;BME280;6917;52.194;9.894;2023-04-28T03:07:49;100322.25;;;5.48;81.53
13690;BME280;6917;52.194;9.894;2023-04-28T03:10:16;100313.41;;;5.32;81.74
13690;BME280;6917;52.194;9.894;2023-04-28T03:12:41;100310.22;;;5.20;81.70
13690;BME280;6917;52.194;9.894;2023-04-28T03:15:07;100310.56;;;5.13;81.51
13690;BME280;6917;52.194;9.894;2023-04-28T03:17:33;100308.94;;;5.12;81.81
13690;BME280;6917;52.194;9.894;2023-04-28T03:20:00;100302.75;;;5.06;81.57
13690;BME280;6917;52.194;9.894;2023-04-28T03:22:26;100304.59;;;5.11;82.15
13690;BME280;6917;52.194;9.894;2023-04-28T03:24:51;100303.47;;;5.17;82.39
13690;BME280;6917;52.194;9.894;2023-04-28T03:27:17;100312.94;;;5.25;82.58
13690;BME280;6917;52.194;9.894;2023-04-28T03:29:42;100302.94;;;5.15;82.25
13690;BME280;6917;52.194;9.894;2023-04-28T03:32:08;100294.88;;;5.10;82.30
13690;BME280;6917;52.194;9.894;2023-04-28T03:34:33;100296.75;;;5.10;82.65
13690;BME280;6917;52.194;9.894;2023-04-28T03:36:58;100289.22;;;5.01;82.24
13690;BME280;6917;52.194;9.894;2023-04-28T03:39:24;100283.03;;;4.91;82.42
13690;BME280;6917;52.194;9.894;2023-04-28T03:41:49;100286.00;;;4.94;83.03
13690;BME280;6917;52.194;9.894;2023-04-28T03:44:15;100289.22;;;5.01;83.62
13690;BME280;6917;52.194;9.894;2023-04-28T03:46:40;100285.94;;;5.04;83.67
13690;BME280;6917;52.194;9.894;2023-04-28T03:49:05;100279.78;;;4.94;83.94
13690;BME280;6917;52.194;9.894;2023-04-28T03:51:31;100281.88;;;5.07;84.04
13690;BME280;6917;52.194;9.894;2023-04-28T03:53:57;100273.28;;;4.95;83.93
13690;BME280;6917;52.194;9.894;2023-04-28T03:56:23;100281.66;;;4.98;83.89
13690;BME280;6917;52.194;9.894;2023-04-28T03:58:48;100278.91;;;5.03;84.10
13690;BME280;6917;52.194;9.894;2023-04-28T04:01:13;100275.38;;;5.08;84.65
13690;BME280;6917;52.194;9.894;2023-04-28T04:03:39;100271.03;;;5.12;84.59
13690;BME280;6917;52.194;9.894;2023-04-28T04:06:05;100266.53;;;4.87;84.73
13690;BME280;6917;52.194;9.894;2023-04-28T04:08:31;100262.03;;;4.62;84.67
13690;BME280;6917;52.194;9.894;2023-04-28T04:10:57;100265.31;;;4.54;85.30
13690;BME280;6917;52.194;9.894;2023-04-28T04:13:22;100278.25;;;4.72;85.23
13690;BME280;6917;52.194;9.894;2023-04-28T04:15:48;100262.72;;;4.93;85.13
13690;BME280;6917;52.194;9.894;2023-04-28T04:18:14;100261.81;;;5.13;85.45
13690;BME280;6917;52.194;9.894;2023-04-28T04:20:40;100247.22;;;5.04;84.92
13690;BME280;6917;52.194;9.894;2023-04-28T04:23:05;100245.59;;;5.03;84.56
13690;BME280;6917;52.194;9.894;2023-04-28T04:25:30;100244.91;;;4.82;83.84
13690;BME280;6917;52.194;9.894;2023-04-28T04:27:57;100250.25;;;4.97;84.25
13690;BME280;6917;52.194;9.894;2023-04-28T04:30:22;100248.38;;;4.93;84.19
13690;BME280;6917;52.194;9.894;2023-04-28T04:32:48;100250.53;;;4.91;84.40
13690;BME280;6917;52.194;9.894;2023-04-28T04:35:13;100236.75;;;4.87;83.67
13690;BME280;6917;52.194;9.894;2023-04-28T04:37:38;100240.28;;;4.88;83.04
13690;BME280;6917;52.194;9.894;2023-04-28T04:40:06;100238.91;;;4.95;83.17
13690;BME280;6917;52.194;9.894;2023-04-28T04:42:31;100238.06;;;5.00;83.68
13690;BME280;6917;52.194;9.894;2023-04-28T04:44:57;100240.72;;;5.05;83.58
13690;BME280;6917;52.194;9.894;2023-04-28T04:47:22;100246.09;;;5.15;83.49
13690;BME280;6917;52.194;9.894;2023-04-28T04:49:48;100249.03;;;5.24;83.13
13690;BME280;6917;52.194;9.894;2023-04-28T04:52:14;100248.69;;;5.35;82.95
13690;BME280;6917;52.194;9.894;2023-04-28T04:54:39;100242.97;;;5.37;82.51
13690;BME280;6917;52.194;9.894;2023-04-28T04:57:05;100239.69;;;5.40;82.15
13690;BME280;6917;52.194;9.894;2023-04-28T04:59:31;100239.38;;;5.47;82.05
13690;BME280;6917;52.194;9.894;2023-04-28T05:01:56;100239.59;;;5.55;81.90
13690;BME280;6917;52.194;9.894;2023-04-28T05:04:21;100234.47;;;5.49;82.20
13690;BME280;6917;52.194;9.894;2023-04-28T05:06:47;100238.09;;;5.39;82.73
13690;BME280;6917;52.194;9.894;2023-04-28T05:09:12;100229.09;;;5.44;83.23
13690;BME280;6917;52.194;9.894;2023-04-28T05:11:37;100224.41;;;5.54;83.50
13690;BME280;6917;52.194;9.894;2023-04-28T05:14:03;100227.06;;;5.64;83.68
13690;BME280;6917;52.194;9.894;2023-04-28T05:16:28;100224.53;;;5.73;83.93
13690;BME280;6917;52.194;9.894;2023-04-28T05:18:54;100235.31;;;5.78;84.26
13690;BME280;6917;52.194;9.894;2023-04-28T05:21:19;100221.81;;;5.73;83.54
13690;BME280;6917;52.194;9.894;2023-04-28T05:23:44;100219.16;;;5.68;83.82
13690;BME280;6917;52.194;9.894;2023-04-28T05:26:10;100221.88;;;5.63;84.39
13690;BME280;6917;52.194;9.894;2023-04-28T05:28:35;100220.03;;;5.58;84.65
13690;BME280;6917;52.194;9.894;2023-04-28T05:31:01;100227.59;;;5.61;85.55
13690;BME280;6917;52.194;9.894;2023-04-28T05:33:26;100222.44;;;5.65;85.20
13690;BME280;6917;52.194;9.894;2023-04-28T05:35:51;100224.53;;;5.73;84.85
13690;BME280;6917;52.194;9.894;2023-04-28T05:38:17;100221.13;;;5.91;84.50
13690;BME280;6917;52.194;9.894;2023-04-28T05:40:42;100220.16;;;6.06;83.97
13690;BME280;6917;52.194;9.894;2023-04-28T05:43:07;100213.13;;;6.05;82.87
13690;BME280;6917;52.194;9.894;2023-04-28T05:45:33;100205.28;;;6.04;81.72
13690;BME280;6917;52.194;9.894;2023-04-28T05:47:59;100206.81;;;6.15;81.29
13690;BME280;6917;52.194;9.894;2023-04-28T05:50:24;100208.13;;;6.17;81.13
13690;BME280;6917;52.194;9.894;2023-04-28T05:52:49;100199.59;;;6.29;80.82
13690;BME280;6917;52.194;9.894;2023-04-28T05:55:15;100190.13;;;6.26;80.32
13690;BME280;6917;52.194;9.894;2023-04-28T05:57:40;100194.53;;;6.22;80.45
13690;BME280;6917;52.194;9.894;2023-04-28T06:00:06;100192.31;;;6.24;80.62
13690;BME280;6917;52.194;9.894;2023-04-28T06:02:32;100189.84;;;6.28;80.68
13690;BME280;6917;52.194;9.894;2023-04-28T06:04:57;100188.22;;;6.51;80.55
13690;BME280;6917;52.194;9.894;2023-04-28T06:07:22;100182.59;;;6.66;79.70
13690;BME280;6917;52.194;9.894;2023-04-28T06:09:49;100175.69;;;6.74;79.17
13690;BME280;6917;52.194;9.894;2023-04-28T06:12:14;100169.31;;;6.83;78.97
13690;BME280;6917;52.194;9.894;2023-04-28T06:14:39;100171.97;;;6.89;78.79
13690;BME280;6917;52.194;9.894;2023-04-28T06:17:05;100182.72;;;6.94;78.75
13690;BME280;6917;52.194;9.894;2023-04-28T06:19:30;100173.22;;;6.96;78.57
13690;BME280;6917;52.194;9.894;2023-04-28T06:21:56;100173.88;;;6.88;78.57
13690;BME280;6917;52.194;9.894;2023-04-28T06:24:21;100171.75;;;6.85;78.52
13690;BME280;6917;52.194;9.894;2023-04-28T06:26:46;100173.72;;;6.98;79.34
13690;BME280;6917;52.194;9.894;2023-04-28T06:29:12;100179.94;;;7.18;79.14
13690;BME280;6917;52.194;9.894;2023-04-28T06:31:37;100167.63;;;7.25;79.00
13690;BME280;6917;52.194;9.894;2023-04-28T06:34:02;100157.25;;;7.27;78.47
13690;BME280;6917;52.194;9.894;2023-04-28T06:36:27;100172.41;;;7.47;79.09
13690;BME280;6917;52.194;9.894;2023-04-28T06:38:53;100165.50;;;7.55;78.10
13690;BME280;6917;52.194;9.894;2023-04-28T06:41:18;100170.16;;;7.68;78.04
13690;BME280;6917;52.194;9.894;2023-04-28T06:43:44;100179.66;;;7.84;77.57
13690;BME280;6917;52.194;9.894;2023-04-28T06:46:09;100186.00;;;7.93;76.90
13690;BME280;6917;52.194;9.894;2023-04-28T06:48:37;100180.00;;;7.96;76.21
13690;BME280;6917;52.194;9.894;2023-04-28T06:51:03;100179.66;;;7.84;75.78
13690;BME280;6917;52.194;9.894;2023-04-28T06:53:29;100179.97;;;7.83;74.67
13690;BME280;6917;52.194;9.894;2023-04-28T06:55:54;100167.16;;;7.69;74.17
13690;BME280;6917;52.194;9.894;2023-04-28T06:58:20;100166.84;;;7.71;74.77
13690;BME280;6917;52.194;9.894;2023-04-28T07:00:45;100172.09;;;7.67;74.71
13690;BME280;6917;52.194;9.894;2023-04-28T07:03:11;100165.53;;;7.68;74.58
13690;BME280;6917;52.194;9.894;2023-04-28T07:05:36;100159.09;;;7.78;74.96
13690;BME280;6917;52.194;9.894;2023-04-28T07:08:02;100156.00;;;7.85;74.14
13690;BME280;6917;52.194;9.894;2023-04-28T07:10:27;100157.19;;;7.92;74.75
13690;BME280;6917;52.194;9.894;2023-04-28T07:12:53;100148.56;;;8.04;74.37
13690;BME280;6917;52.194;9.894;2023-04-28T07:15:18;100152.19;;;8.27;74.76
13690;BME280;6917;52.194;9.894;2023-04-28T07:17:44;100148.56;;;8.31;74.20
13690;BME280;6917;52.194;9.894;2023-04-28T07:20:09;100145.75;;;8.37;73.86
13690;BME280;6917;52.194;9.894;2023-04-28T07:22:35;100147.34;;;8.51;73.56
13690;BME280;6917;52.194;9.894;2023-04-28T07:25:00;100144.81;;;8.69;73.67
13690;BME280;6917;52.194;9.894;2023-04-28T07:27:26;100146.41;;;8.83;72.34
13690;BME280;6917;52.194;9.894;2023-04-28T07:29:51;100146.34;;;8.97;71.68
13690;BME280;6917;52.194;9.894;2023-04-28T07:32:17;100124.16;;;8.90;69.55
13690;BME280;6917;52.194;9.894;2023-04-28T07:34:42;100133.75;;;8.87;70.38
13690;BME280;6917;52.194;9.894;2023-04-28T07:37:07;100128.44;;;9.05;69.51
13690;BME280;6917;52.194;9.894;2023-04-28T07:39:33;100120.28;;;9.05;67.93
13690;BME280;6917;52.194;9.894;2023-04-28T07:42:00;100117.50;;;9.18;68.28
13690;BME280;6917;52.194;9.894;2023-04-28T07:44:26;100127.44;;;9.45;69.19
13690;BME280;6917;52.194;9.894;2023-04-28T07:46:52;100132.66;;;9.56;68.88
13690;BME280;6917;52.194;9.894;2023-04-28T07:49:17;100116.81;;;9.66;67.83
13690;BME280;6917;52.194;9.894;2023-04-28T07:51:43;100116.69;;;9.71;66.53
13690;BME280;6917;52.194;9.894;2023-04-28T07:54:08;100100.09;;;9.59;66.07
13690;BME280;6917;52.194;9.894;2023-04-28T07:56:33;100111.25;;;9.71;66.93
13690;BME280;6917;52.194;9.894;2023-04-28T07:58:59;100100.34;;;9.80;66.53
13690;BME280;6917;52.194;9.894;2023-04-28T08:01:24;100104.41;;;9.91;67.17
13690;BME280;6917;52.194;9.894;2023-04-28T08:03:50;100088.78;;;9.83;66.35
13690;BME280;6917;52.194;9.894;2023-04-28T08:06:15;100089.31;;;9.85;66.26
13690;BME280;6917;52.194;9.894;2023-04-28T08:08:41;100097.72;;;10.06;67.23
13690;BME280;6917;52.194;9.894;2023-04-28T08:11:06;100099.38;;;10.16;66.84
13690;BME280;6917;52.194;9.894;2023-04-28T08:13:32;100083.00;;;10.16;66.59
13690;BME280;6917;52.194;9.894;2023-04-28T08:15:57;100089.16;;;10.30;66.69
13690;BME280;6917;52.194;9.894;2023-04-28T08:18:27;100091.44;;;10.45;66.61
13690;BME280;6917;52.194;9.894;2023-04-28T08:20:53;100099.97;;;10.69;67.48
13690;BME280;6917;52.194;9.894;2023-04-28T08:23:18;100098.03;;;10.79;66.22
13690;BME280;6917;52.194;9.894;2023-04-28T08:25:45;100094.03;;;10.76;66.02
13690;BME280;6917;52.194;9.894;2023-04-28T08:28:11;100089.03;;;10.78;66.46
13690;BME280;6917;52.194;9.894;2023-04-28T08:30:36;100094.00;;;10.85;66.55
13690;BME280;6917;52.194;9.894;2023-04-28T08:33:03;100096.13;;;10.88;65.61
13690;BME280;6917;52.194;9.894;2023-04-28T08:35:28;100093.88;;;10.72;66.13
13690;BME280;6917;52.194;9.894;2023-04-28T08:37:54;100096.28;;;10.57;66.24
13690;BME280;6917;52.194;9.894;2023-04-28T08:40:19;100089.22;;;10.73;66.42
13690;BME280;6917;52.194;9.894;2023-04-28T08:42:46;100092.75;;;10.91;66.54
13690;BME280;6917;52.194;9.894;2023-04-28T08:45:14;100086.47;;;10.90;65.94
13690;BME280;6917;52.194;9.894;2023-04-28T08:47:40;100082.75;;;10.95;65.57
13690;BME280;6917;52.194;9.894;2023-04-28T08:50:10;100091.44;;;11.06;66.13
13690;BME280;6917;52.194;9.894;2023-04-28T08:52:40;100081.97;;;11.03;65.36
13690;BME280;6917;52.194;9.894;2023-04-28T08:55:07;100099.00;;;11.17;66.08
13690;BME280;6917;52.194;9.894;2023-04-28T08:57:44;100085.47;;;11.12;66.14
13690;BME280;6917;52.194;9.894;2023-04-28T09:00:10;100080.19;;;11.16;66.70
13690;BME280;6917;52.194;9.894;2023-04-28T09:02:36;100071.34;;;11.10;65.70
13690;BME280;6917;52.194;9.894;2023-04-28T09:05:05;100082.75;;;11.29;65.92
13690;BME280;6917;52.194;9.894;2023-04-28T09:07:30;100083.97;;;11.49;66.62
13690;BME280;6917;52.194;9.894;2023-04-28T09:12:41;100080.03;;;11.76;65.77
13690;BME280;6917;52.194;9.894;2023-04-28T09:15:07;100061.63;;;11.85;66.07
13690;BME280;6917;52.194;9.894;2023-04-28T09:17:47;100065.88;;;11.66;65.28
13690;BME280;6917;52.194;9.894;2023-04-28T09:20:24;100053.94;;;11.70;65.01
13690;BME280;6917;52.194;9.894;2023-04-28T09:22:51;100054.81;;;11.62;64.98
13690;BME280;6917;52.194;9.894;2023-04-28T09:25:18;100054.59;;;11.67;65.39
13690;BME280;6917;52.194;9.894;2023-04-28T09:27:45;100049.31;;;11.62;65.42
13690;BME280;6917;52.194;9.894;2023-04-28T09:30:11;100051.53;;;11.69;65.59
13690;BME280;6917;52.194;9.894;2023-04-28T09:32:36;100031.06;;;11.83;65.02
13690;BME280;6917;52.194;9.894;2023-04-28T09:35:02;100032.31;;;11.86;64.07
13690;BME280;6917;52.194;9.894;2023-04-28T09:37:29;100031.03;;;11.92;64.67
13690;BME280;6917;52.194;9.894;2023-04-28T09:39:56;100047.56;;;12.04;64.80
13690;BME280;6917;52.194;9.894;2023-04-28T09:42:42;100035.69;;;12.21;63.88
13690;BME280;6917;52.194;9.894;2023-04-28T09:45:12;100031.22;;;12.37;63.85
13690;BME280;6917;52.194;9.894;2023-04-28T09:47:39;100031.91;;;12.34;63.88
13690;BME280;6917;52.194;9.894;2023-04-28T09:50:06;100026.41;;;12.34;63.51
13690;BME280;6917;52.194;9.894;2023-04-28T09:52:35;100022.41;;;12.52;64.28
13690;BME280;6917;52.194;9.894;2023-04-28T09:55:04;100036.81;;;12.82;65.26
13690;BME280;6917;52.194;9.894;2023-04-28T09:57:32;100024.69;;;13.04;63.79
13690;BME280;6917;52.194;9.894;2023-04-28T09:59:57;100015.19;;;13.02;62.89
13690;BME280;6917;52.194;9.894;2023-04-28T10:02:24;100001.53;;;12.81;62.32
13690;BME280;6917;52.194;9.894;2023-04-28T10:04:49;100023.97;;;12.95;63.24
13690;BME280;6917;52.194;9.894;2023-04-28T10:07:20;100015.28;;;12.72;62.77
13690;BME280;6917;52.194;9.894;2023-04-28T10:09:47;100027.56;;;12.87;63.29
13690;BME280;6917;52.194;9.894;2023-04-28T10:12:16;100017.91;;;12.69;63.13
13690;BME280;6917;52.194;9.894;2023-04-28T10:14:42;100026.06;;;12.77;63.81
13690;BME280;6917;52.194;9.894;2023-04-28T10:17:09;100034.09;;;12.62;64.23
13690;BME280;6917;52.194;9.894;2023-04-28T10:19:35;100035.09;;;12.78;63.77
13690;BME280;6917;52.194;9.894;2023-04-28T10:27:44;100034.44;;;12.60;64.68
13690;BME280;6917;52.194;9.894;2023-04-28T10:32:36;100038.84;;;12.73;65.82
13690;BME280;6917;52.194;9.894;2023-04-28T10:38:12;100022.41;;;12.73;63.54
13690;BME280;6917;52.194;9.894;2023-04-28T10:40:42;100023.19;;;12.53;64.58
13690;BME280;6917;52.194;9.894;2023-04-28T10:43:10;100024.94;;;12.37;65.59
13690;BME280;6917;52.194;9.894;2023-04-28T10:48:14;100032.56;;;12.52;66.23
13690;BME280;6917;52.194;9.894;2023-04-28T10:56:21;100038.16;;;12.56;68.61
13690;BME280;6917;52.194;9.894;2023-04-28T10:58:48;100027.75;;;12.49;68.08
13690;BME280;6917;52.194;9.894;2023-04-28T11:06:32;100043.06;;;12.50;71.51
13690;BME280;6917;52.194;9.894;2023-04-28T11:11:38;100055.53;;;12.18;74.56
13690;BME280;6917;52.194;9.894;2023-04-28T11:16:48;100026.81;;;12.24;75.05
13690;BME280;6917;52.194;9.894;2023-04-28T11:19:20;100016.19;;;12.43;74.90
13690;BME280;6917;52.194;9.894;2023-04-28T11:21:47;100013.25;;;12.48;73.07
13690;BME280;6917;52.194;9.894;2023-04-28T11:24:13;100004.69;;;12.50;72.60
13690;BME280;6917;52.194;9.894;2023-04-28T11:26:39;100008.03;;;12.56;72.71
13690;BME280;6917;52.194;9.894;2023-04-28T11:29:04;100006.75;;;12.53;71.27
13690;BME280;6917;52.194;9.894;2023-04-28T11:31:30;100011.91;;;12.75;71.67
13690;BME280;6917;52.194;9.894;2023-04-28T11:34:02;100005.56;;;12.96;71.64
13690;BME280;6917;52.194;9.894;2023-04-28T11:36:33;100003.84;;;13.24;71.19
13690;BME280;6917;52.194;9.894;2023-04-28T11:38:59;99994.25;;;13.18;69.72
13690;BME280;6917;52.194;9.894;2023-04-28T11:41:25;99981.44;;;13.22;69.01
13690;BME280;6917;52.194;9.894;2023-04-28T11:43:51;99981.84;;;13.12;68.45
13690;BME280;6917;52.194;9.894;2023-04-28T11:46:22;99994.16;;;13.39;69.51
13690;BME280;6917;52.194;9.894;2023-04-28T11:48:48;99993.72;;;13.61;68.94
13690;BME280;6917;52.194;9.894;2023-04-28T11:51:35;99982.28;;;13.47;68.13
13690;BME280;6917;52.194;9.894;2023-04-28T11:54:05;99983.59;;;13.17;67.89
13690;BME280;6917;52.194;9.894;2023-04-28T11:56:39;99980.13;;;13.07;68.13
13690;BME280;6917;52.194;9.894;2023-04-28T12:01:32;99981.00;;;13.45;68.37
13690;BME280;6917;52.194;9.894;2023-04-28T12:03:58;99965.72;;;13.10;67.56
13690;BME280;6917;52.194;9.894;2023-04-28T12:06:24;99970.84;;;13.00;67.25
13690;BME280;6917;52.194;9.894;2023-04-28T12:08:49;99973.88;;;12.86;68.56
13690;BME280;6917;52.194;9.894;2023-04-28T12:11:16;99974.91;;;12.81;68.84
13690;BME280;6917;52.194;9.894;2023-04-28T12:13:42;99969.53;;;12.85;68.84
13690;BME280;6917;52.194;9.894;2023-04-28T12:16:07;99973.34;;;12.93;69.57
13690;BME280;6917;52.194;9.894;2023-04-28T12:18:34;99975.75;;;12.94;69.40
13690;BME280;6917;52.194;9.894;2023-04-28T12:21:04;99983.53;;;12.71;71.63
13690;BME280;6917;52.194;9.894;2023-04-28T12:23:33;100000.25;;;12.78;74.53
13690;BME280;6917;52.194;9.894;2023-04-28T12:26:00;99996.72;;;12.57;74.46
13690;BME280;6917;52.194;9.894;2023-04-28T12:28:39;100007.63;;;12.66;75.83
13690;BME280;6917;52.194;9.894;2023-04-28T12:31:06;100008.09;;;12.68;76.88
13690;BME280;6917;52.194;9.894;2023-04-28T12:33:33;99997.00;;;12.64;77.30
13690;BME280;6917;52.194;9.894;2023-04-28T12:36:02;99990.88;;;12.46;77.11
13690;BME280;6917;52.194;9.894;2023-04-28T12:38:28;100003.56;;;12.51;79.05
13690;BME280;6917;52.194;9.894;2023-04-28T12:40:54;99998.88;;;12.51;79.04
13690;BME280;6917;52.194;9.894;2023-04-28T12:43:19;99992.06;;;12.37;78.72
13690;BME280;6917;52.194;9.894;2023-04-28T12:45:49;99986.97;;;12.27;78.70
13690;BME280;6917;52.194;9.894;2023-04-28T12:48:14;99995.16;;;12.35;79.65
13690;BME280;6917;52.194;9.894;2023-04-28T12:50:39;99992.34;;;12.23;78.69
13690;BME280;6917;52.194;9.894;2023-04-28T12:53:05;99998.13;;;12.42;79.35
13690;BME280;6917;52.194;9.894;2023-04-28T12:55:30;99989.66;;;12.35;79.38
13690;BME280;6917;52.194;9.894;2023-04-28T12:57:56;99987.66;;;12.24;78.84
13690;BME280;6917;52.194;9.894;2023-04-28T13:00:21;99991.25;;;12.36;80.09
13690;BME280;6917;52.194;9.894;2023-04-28T13:02:49;99993.16;;;12.44;79.75
13690;BME280;6917;52.194;9.894;2023-04-28T13:05:14;99986.53;;;12.45;80.34
13690;BME280;6917;52.194;9.894;2023-04-28T13:07:40;99975.34;;;12.50;79.74
13690;BME280;6917;52.194;9.894;2023-04-28T13:10:06;99982.56;;;12.55;80.28
13690;BME280;6917;52.194;9.894;2023-04-28T13:12:32;99979.03;;;12.55;79.63
13690;BME280;6917;52.194;9.894;2023-04-28T13:15:00;99974.09;;;12.48;79.73
13690;BME280;6917;52.194;9.894;2023-04-28T13:17:25;99972.28;;;12.52;79.44
13690;BME280;6917;52.194;9.894;2023-04-28T13:19:51;99968.94;;;12.46;79.71
13690;BME280;6917;52.194;9.894;2023-04-28T13:22:16;99967.00;;;12.26;80.40
13690;BME280;6917;52.194;9.894;2023-04-28T13:24:42;99960.66;;;12.34;80.81
13690;BME280;6917;52.194;9.894;2023-04-28T13:27:07;99957.03;;;12.42;81.71
13690;BME280;6917;52.194;9.894;2023-04-28T13:29:34;99950.13;;;12.45;82.00
13690;BME280;6917;52.194;9.894;2023-04-28T13:32:01;99956.63;;;12.52;82.61
13690;BME280;6917;52.194;9.894;2023-04-28T13:34:26;99948.13;;;12.33;81.89
13690;BME280;6917;52.194;9.894;2023-04-28T13:36:52;99937.09;;;12.21;81.36